Time;durP1;ratioP1;P1;durP2;ratioP2;P2;SDS_P1;SDS_P2;PMS_P1;PMS_P2;Temp;Humidity;BMP_temperature;BMP_pressure;BME280_temperature;BME280_humidity;BME280_pressure;Samples;Min_cycle;Max_cycle;Signal;HPM_P1;HPM_P2
2021/08/27 00:00:56;;;;;;;0.60;0.60;;;13.20;99.90;;;;;;4902561;29;20400;-67
2021/08/27 00:03:21;;;;;;;0.50;0.50;;;13.20;99.90;;;;;;4903143;29;20417;-68
2021/08/27 00:05:48;;;;;;;0.60;0.60;;;13.20;99.90;;;;;;4916647;29;20416;-68
2021/08/27 00:08:14;;;;;;;0.57;0.57;;;13.20;99.90;;;;;;4904160;29;20407;-68
2021/08/27 00:10:40;;;;;;;0.50;0.50;;;13.20;99.90;;;;;;4916173;29;20488;-68
2021/08/27 00:13:05;;;;;;;0.57;0.57;;;13.20;99.90;;;;;;4915649;29;20415;-69
2021/08/27 00:15:31;;;;;;;0.53;0.53;;;13.30;99.90;;;;;;4915036;29;20480;-68
2021/08/27 00:17:57;;;;;;;0.50;0.50;;;13.20;99.90;;;;;;4918386;29;20415;-70
2021/08/27 00:20:22;;;;;;;0.60;0.60;;;13.30;99.90;;;;;;4924338;29;21128;-69
2021/08/27 00:22:48;;;;;;;0.70;0.70;;;13.30;99.90;;;;;;4898535;29;20488;-68
2021/08/27 00:25:14;;;;;;;0.50;0.50;;;13.30;99.90;;;;;;4885516;29;20427;-68
2021/08/27 00:27:39;;;;;;;0.57;0.57;;;13.40;99.90;;;;;;4915232;29;21131;-70
2021/08/27 00:30:06;;;;;;;0.50;0.50;;;13.30;99.90;;;;;;4914045;29;20407;-69
2021/08/27 00:32:31;;;;;;;0.60;0.60;;;13.30;99.90;;;;;;4916565;29;20424;-67
2021/08/27 00:34:57;;;;;;;0.60;0.60;;;13.20;99.90;;;;;;4918844;29;20448;-69
2021/08/27 00:37:23;;;;;;;0.60;0.60;;;13.30;99.90;;;;;;4922794;29;20460;-69
2021/08/27 00:39:48;;;;;;;0.70;0.70;;;13.30;99.90;;;;;;4904710;29;20901;-68
2021/08/27 00:42:14;;;;;;;0.80;0.80;;;13.20;99.90;;;;;;4917780;29;20464;-69
2021/08/27 00:44:40;;;;;;;0.57;0.57;;;13.30;99.90;;;;;;4923410;29;20415;-69
2021/08/27 00:47:05;;;;;;;0.63;0.63;;;13.30;99.90;;;;;;4915219;29;20478;-69
2021/08/27 00:49:32;;;;;;;0.57;0.57;;;13.30;99.90;;;;;;4906827;29;20498;-68
2021/08/27 00:51:57;;;;;;;0.73;0.73;;;13.30;99.90;;;;;;4917274;29;20514;-69
2021/08/27 00:54:23;;;;;;;0.50;0.50;;;13.30;99.90;;;;;;4904728;29;20407;-68
2021/08/27 00:56:51;;;;;;;0.60;0.60;;;13.20;99.90;;;;;;4903015;29;20423;-70
2021/08/27 00:59:17;;;;;;;0.60;0.60;;;13.30;99.90;;;;;;4918067;29;20965;-68
2021/08/27 01:01:43;;;;;;;0.80;0.80;;;13.30;99.90;;;;;;4915206;29;20456;-71
2021/08/27 01:04:09;;;;;;;0.77;0.77;;;13.30;99.90;;;;;;4917108;29;20395;-66
2021/08/27 01:06:42;;;;;;;0.90;0.90;;;13.30;99.90;;;;;;4924065;29;20411;-68
2021/08/27 01:09:48;;;;;;;0.80;0.80;;;13.30;99.90;;;;;;4896888;29;20883;-68
2021/08/27 01:12:24;;;;;;;0.90;0.90;;;13.30;99.90;;;;;;4896100;29;20819;-71
2021/08/27 01:14:54;;;;;;;0.70;0.70;;;13.30;99.90;;;;;;4902224;29;20423;-68
2021/08/27 01:17:21;;;;;;;0.80;0.80;;;13.30;99.90;;;;;;4917752;29;20778;-69
2021/08/27 01:20:19;;;;;;;0.60;0.60;;;13.30;99.90;;;;;;4926293;29;20416;-68
2021/08/27 01:22:53;;;;;;;2.15;0.82;;;13.30;99.90;;;;;;4941047;29;20915;-68
2021/08/27 01:25:21;;;;;;;0.70;0.70;;;13.20;99.90;;;;;;4939217;29;20415;-67
2021/08/27 01:27:48;;;;;;;0.70;0.70;;;13.10;99.90;;;;;;4920257;29;20835;-68
2021/08/27 01:30:22;;;;;;;0.70;0.70;;;13.10;99.90;;;;;;4916593;29;20863;-69
2021/08/27 01:33:05;;;;;;;0.57;0.57;;;13.10;99.90;;;;;;4919075;29;20477;-68
2021/08/27 01:35:31;;;;;;;0.70;0.70;;;13.10;99.90;;;;;;4895957;29;20407;-69
2021/08/27 01:37:57;;;;;;;0.90;0.90;;;13.00;99.90;;;;;;4907910;29;20847;-68
2021/08/27 01:40:23;;;;;;;0.73;0.73;;;13.00;99.90;;;;;;4899886;29;20406;-66
2021/08/27 01:42:48;;;;;;;0.70;0.70;;;13.00;99.90;;;;;;4903150;29;20881;-69
2021/08/27 01:45:14;;;;;;;0.85;0.85;;;13.10;99.90;;;;;;4909921;29;20538;-69
2021/08/27 01:47:40;;;;;;;0.80;0.80;;;13.00;99.90;;;;;;4934508;29;20431;-68
2021/08/27 01:50:06;;;;;;;0.70;0.70;;;13.00;99.90;;;;;;4909909;29;20426;-69
2021/08/27 01:52:32;;;;;;;0.73;0.73;;;12.90;99.90;;;;;;4923822;29;20411;-69
2021/08/27 01:54:58;;;;;;;0.77;0.77;;;12.90;99.90;;;;;;4922296;29;20403;-68
2021/08/27 01:57:25;;;;;;;0.80;0.80;;;12.90;99.90;;;;;;4917922;29;20689;-68
2021/08/27 01:59:51;;;;;;;0.80;0.80;;;12.90;99.90;;;;;;4901628;29;20399;-69
2021/08/27 02:02:17;;;;;;;1.00;1.00;;;12.90;99.90;;;;;;4886057;29;20407;-68
2021/08/27 02:04:46;;;;;;;0.80;0.80;;;12.80;99.90;;;;;;4917719;29;20408;-68
2021/08/27 02:07:12;;;;;;;0.80;0.80;;;12.80;99.90;;;;;;4925020;29;20419;-69
2021/08/27 02:09:37;;;;;;;0.97;0.90;;;12.80;99.90;;;;;;4932959;29;20399;-68
2021/08/27 02:12:04;;;;;;;0.95;0.95;;;12.80;99.90;;;;;;4927258;29;20411;-69
2021/08/27 02:14:30;;;;;;;0.80;0.80;;;12.70;99.90;;;;;;4918423;29;20487;-68
2021/08/27 02:16:56;;;;;;;0.90;0.90;;;12.80;99.90;;;;;;4916923;29;20671;-70
2021/08/27 02:19:22;;;;;;;0.73;0.73;;;12.70;99.90;;;;;;4909317;29;20407;-69
2021/08/27 02:21:50;;;;;;;2.50;0.90;;;12.70;99.90;;;;;;4921896;29;20407;-67
2021/08/27 02:24:20;;;;;;;1.70;0.95;;;12.70;99.90;;;;;;4903443;29;20399;-69
2021/08/27 02:26:46;;;;;;;1.10;0.93;;;12.70;99.90;;;;;;4900468;29;20462;-71
2021/08/27 02:29:14;;;;;;;0.87;0.87;;;12.70;99.90;;;;;;4915640;29;20484;-67
2021/08/27 02:31:41;;;;;;;0.90;0.90;;;12.70;99.90;;;;;;4917302;29;20418;-68
2021/08/27 02:34:07;;;;;;;1.13;0.93;;;12.70;99.90;;;;;;4899271;29;20451;-68
2021/08/27 02:36:33;;;;;;;1.13;1.03;;;12.70;99.90;;;;;;4913753;29;20818;-68
2021/08/27 02:38:58;;;;;;;0.80;0.80;;;12.70;99.90;;;;;;4882592;29;20448;-69
2021/08/27 02:41:24;;;;;;;0.83;0.83;;;12.70;99.90;;;;;;4925396;29;20399;-67
2021/08/27 02:43:50;;;;;;;1.05;1.02;;;12.70;99.90;;;;;;4913254;29;20963;-67
2021/08/27 02:46:15;;;;;;;0.82;0.82;;;12.70;99.90;;;;;;4913640;29;21312;-69
2021/08/27 02:48:41;;;;;;;0.90;0.90;;;12.70;99.90;;;;;;4928141;29;20400;-68
2021/08/27 02:51:14;;;;;;;0.90;0.90;;;12.70;99.90;;;;;;4912919;29;20451;-68
2021/08/27 02:53:45;;;;;;;0.90;0.90;;;12.70;99.90;;;;;;4917134;29;20504;-68
2021/08/27 02:56:22;;;;;;;0.80;0.80;;;12.80;99.90;;;;;;4915734;29;20513;-67
2021/08/27 02:58:49;;;;;;;1.30;0.90;;;12.80;99.90;;;;;;4913965;29;20403;-67
2021/08/27 03:01:36;;;;;;;1.40;1.10;;;12.80;99.90;;;;;;4912537;29;21288;-69
2021/08/27 03:04:20;;;;;;;0.80;0.80;;;12.80;99.90;;;;;;4899369;29;20471;-69
2021/08/27 03:07:05;;;;;;;0.83;0.83;;;12.80;99.90;;;;;;4898450;29;20450;-68
2021/08/27 03:09:50;;;;;;;0.80;0.80;;;12.80;99.90;;;;;;4915796;29;20405;-66
2021/08/27 03:12:18;;;;;;;1.60;0.90;;;12.80;99.90;;;;;;4894406;29;21108;-68
2021/08/27 03:14:55;;;;;;;0.80;0.80;;;12.80;99.90;;;;;;4916898;29;20427;-68
2021/08/27 03:17:21;;;;;;;0.90;0.90;;;12.90;99.90;;;;;;4915854;29;20415;-68
2021/08/27 03:19:57;;;;;;;0.90;0.90;;;12.80;99.90;;;;;;4921423;29;20410;-66
2021/08/27 03:22:29;;;;;;;0.90;0.90;;;12.80;99.90;;;;;;4924564;29;20404;-68
2021/08/27 03:24:59;;;;;;;0.90;0.90;;;12.80;99.90;;;;;;4896580;29;20416;-67
2021/08/27 03:27:26;;;;;;;0.90;0.90;;;12.90;99.90;;;;;;4893822;29;20422;-68
2021/08/27 03:29:56;;;;;;;0.98;0.98;;;12.90;99.90;;;;;;4909107;29;20407;-66
2021/08/27 03:32:23;;;;;;;0.90;0.90;;;12.90;99.90;;;;;;4912679;29;20412;-66
2021/08/27 03:34:48;;;;;;;0.80;0.80;;;12.90;99.90;;;;;;4914085;29;20543;-68
2021/08/27 03:37:14;;;;;;;0.97;0.90;;;12.80;99.90;;;;;;4899303;29;20501;-67
2021/08/27 03:39:40;;;;;;;0.88;0.88;;;12.90;99.90;;;;;;4915367;29;20396;-67
2021/08/27 03:42:06;;;;;;;0.90;0.90;;;12.90;99.90;;;;;;4897183;29;20471;-68
2021/08/27 03:44:32;;;;;;;0.80;0.80;;;12.90;99.90;;;;;;4912826;29;20466;-67
2021/08/27 03:46:58;;;;;;;0.90;0.90;;;12.90;99.90;;;;;;4914581;29;20438;-67
2021/08/27 03:49:23;;;;;;;0.90;0.90;;;12.90;99.90;;;;;;4881914;29;20395;-69
2021/08/27 03:51:49;;;;;;;0.87;0.87;;;13.00;99.90;;;;;;4902771;29;20407;-68
2021/08/27 03:54:18;;;;;;;0.75;0.75;;;13.00;99.90;;;;;;4915208;29;20854;-67
2021/08/27 03:56:44;;;;;;;1.93;0.90;;;13.00;99.90;;;;;;4914708;29;20431;-70
2021/08/27 03:59:10;;;;;;;0.70;0.70;;;13.00;99.90;;;;;;4900766;29;20418;-68
2021/08/27 04:01:36;;;;;;;3.72;3.42;;;13.00;99.90;;;;;;4915043;29;20809;-67
2021/08/27 04:04:02;;;;;;;1.47;1.37;;;13.00;99.90;;;;;;4914062;29;20387;-67
2021/08/27 04:06:27;;;;;;;0.83;0.83;;;13.00;99.90;;;;;;4895221;29;20952;-68
2021/08/27 04:08:53;;;;;;;0.90;0.90;;;13.00;99.90;;;;;;4910400;29;20480;-68
2021/08/27 04:11:19;;;;;;;1.00;1.00;;;13.00;99.90;;;;;;4915008;29;20470;-67
2021/08/27 04:13:44;;;;;;;0.88;0.88;;;13.10;99.90;;;;;;4928803;29;20407;-66
2021/08/27 04:16:10;;;;;;;0.87;0.87;;;13.10;99.90;;;;;;4895951;29;20924;-68
2021/08/27 04:18:36;;;;;;;0.80;0.80;;;13.10;99.90;;;;;;4890527;29;20429;-66
2021/08/27 04:21:02;;;;;;;1.00;0.80;;;13.10;99.90;;;;;;4921302;29;20407;-67
2021/08/27 04:23:28;;;;;;;0.88;0.88;;;13.10;99.90;;;;;;4914367;29;20400;-70
2021/08/27 04:25:53;;;;;;;0.80;0.80;;;13.10;99.90;;;;;;4926756;29;21071;-68
2021/08/27 04:28:19;;;;;;;1.70;1.60;;;13.10;99.90;;;;;;4925361;29;20926;-68
2021/08/27 04:30:44;;;;;;;1.63;1.53;;;13.10;99.90;;;;;;4924577;29;21061;-67
2021/08/27 04:33:10;;;;;;;0.88;0.88;;;13.10;99.90;;;;;;4880537;29;20396;-68
2021/08/27 04:35:36;;;;;;;0.87;0.87;;;13.20;99.90;;;;;;4914090;29;20435;-66
2021/08/27 04:38:02;;;;;;;1.00;1.00;;;13.20;99.90;;;;;;4914164;29;20424;-67
2021/08/27 04:40:27;;;;;;;0.80;0.80;;;13.20;99.90;;;;;;4930951;29;20415;-69
2021/08/27 04:42:53;;;;;;;0.90;0.80;;;13.20;99.90;;;;;;4898702;29;20422;-67
2021/08/27 04:45:19;;;;;;;0.80;0.80;;;13.20;99.90;;;;;;4916697;29;20416;-67
2021/08/27 04:47:45;;;;;;;0.90;0.90;;;13.20;99.90;;;;;;4902263;29;20414;-68
2021/08/27 04:50:11;;;;;;;1.07;1.07;;;13.20;99.90;;;;;;4913572;29;20424;-67
2021/08/27 04:52:37;;;;;;;1.17;1.10;;;13.30;99.90;;;;;;4898329;29;20438;-69
2021/08/27 04:55:03;;;;;;;1.00;0.77;;;13.20;99.90;;;;;;4910497;29;20476;-67
2021/08/27 04:57:30;;;;;;;0.90;0.90;;;13.30;99.90;;;;;;4901935;29;21070;-67
2021/08/27 04:59:55;;;;;;;0.88;0.88;;;13.30;99.90;;;;;;4905880;29;20394;-68
2021/08/27 05:02:21;;;;;;;0.80;0.80;;;13.30;99.90;;;;;;4907381;29;20941;-69
2021/08/27 05:04:47;;;;;;;0.80;0.80;;;13.40;99.90;;;;;;4893681;29;20503;-68
2021/08/27 05:07:12;;;;;;;0.97;0.97;;;13.40;99.90;;;;;;4912046;29;20404;-68
2021/08/27 05:09:38;;;;;;;1.77;0.90;;;13.40;99.90;;;;;;4909952;29;20994;-69
2021/08/27 05:12:04;;;;;;;0.90;0.90;;;13.50;99.90;;;;;;4910468;29;20410;-68
2021/08/27 05:14:30;;;;;;;0.77;0.77;;;13.50;99.90;;;;;;4924364;29;20427;-69
2021/08/27 05:16:55;;;;;;;0.90;0.90;;;13.50;99.90;;;;;;4925669;29;20415;-69
2021/08/27 05:19:21;;;;;;;0.90;0.90;;;13.50;99.90;;;;;;4902384;29;21143;-68
2021/08/27 05:21:47;;;;;;;0.90;0.90;;;13.60;99.90;;;;;;4913889;29;20408;-68
2021/08/27 05:24:12;;;;;;;0.90;0.90;;;13.60;99.90;;;;;;4911605;29;20407;-71
2021/08/27 05:26:38;;;;;;;1.02;0.95;;;13.60;99.90;;;;;;4895505;29;20514;-68
2021/08/27 05:29:04;;;;;;;0.87;0.87;;;13.70;99.90;;;;;;4911084;29;20950;-68
2021/08/27 05:31:30;;;;;;;1.10;1.00;;;13.70;99.90;;;;;;4918602;29;20410;-70
2021/08/27 05:33:55;;;;;;;0.90;0.90;;;13.70;99.90;;;;;;4893454;29;20402;-69
2021/08/27 05:36:21;;;;;;;0.80;0.80;;;13.70;99.90;;;;;;4894063;29;20416;-68
2021/08/27 05:38:47;;;;;;;1.20;1.20;;;13.70;99.90;;;;;;4893731;29;20662;-69
2021/08/27 05:41:13;;;;;;;0.95;0.95;;;13.80;99.90;;;;;;4893675;29;20405;-69
2021/08/27 05:43:39;;;;;;;0.90;0.90;;;13.80;99.90;;;;;;4877393;29;20860;-68
2021/08/27 05:46:05;;;;;;;1.98;1.23;;;13.80;99.90;;;;;;4910092;29;20408;-70
2021/08/27 05:48:30;;;;;;;1.40;1.10;;;13.80;99.90;;;;;;4919476;29;20408;-70
2021/08/27 05:50:56;;;;;;;1.48;1.00;;;13.80;99.90;;;;;;4923266;29;20785;-68
2021/08/27 05:53:22;;;;;;;1.15;1.15;;;13.80;99.90;;;;;;4927985;29;20959;-68
2021/08/27 05:55:47;;;;;;;1.40;1.08;;;13.70;99.90;;;;;;4929559;29;20597;-67
2021/08/27 05:58:13;;;;;;;0.90;0.90;;;13.80;99.90;;;;;;4911739;29;21172;-68
2021/08/27 06:00:39;;;;;;;0.90;0.90;;;13.80;99.90;;;;;;4917360;29;20401;-69
2021/08/27 06:03:04;;;;;;;0.75;0.75;;;13.80;99.90;;;;;;4892104;29;20412;-68
2021/08/27 06:05:30;;;;;;;1.30;1.10;;;13.90;99.90;;;;;;4893893;29;20405;-69
2021/08/27 06:07:56;;;;;;;0.90;0.90;;;13.90;99.90;;;;;;4894271;29;20796;-70
2021/08/27 06:10:21;;;;;;;0.80;0.80;;;13.90;99.90;;;;;;4908645;29;20466;-68
2021/08/27 06:12:47;;;;;;;1.08;1.08;;;13.90;99.90;;;;;;4911766;29;20412;-69
2021/08/27 06:15:13;;;;;;;1.40;1.30;;;13.80;99.90;;;;;;4928040;29;20430;-68
2021/08/27 06:17:39;;;;;;;0.90;0.90;;;13.80;99.90;;;;;;4921345;29;20470;-67
2021/08/27 06:20:06;;;;;;;0.98;0.98;;;13.90;99.90;;;;;;4905880;29;20493;-66
2021/08/27 06:22:32;;;;;;;1.08;1.08;;;13.90;99.90;;;;;;4925121;29;20479;-67
2021/08/27 06:24:57;;;;;;;0.80;0.80;;;13.90;99.90;;;;;;4898937;29;20922;-68
2021/08/27 06:27:23;;;;;;;1.20;1.10;;;13.90;99.90;;;;;;4905424;29;20404;-69
2021/08/27 06:29:48;;;;;;;1.00;0.97;;;13.90;99.90;;;;;;4900137;29;20474;-70
2021/08/27 06:32:14;;;;;;;0.90;0.90;;;13.90;99.90;;;;;;4892393;29;20615;-69
2021/08/27 06:34:40;;;;;;;1.23;1.13;;;13.90;99.90;;;;;;4903793;29;20397;-68
2021/08/27 06:37:06;;;;;;;0.90;0.90;;;13.90;99.90;;;;;;4892344;29;20421;-68
2021/08/27 06:39:31;;;;;;;0.97;0.87;;;13.90;99.90;;;;;;4909242;29;21279;-68
2021/08/27 06:41:57;;;;;;;0.80;0.80;;;13.90;99.90;;;;;;4876313;29;25527;-69
2021/08/27 06:44:22;;;;;;;0.70;0.70;;;13.90;99.90;;;;;;4881598;29;20813;-68
2021/08/27 06:46:48;;;;;;;0.83;0.83;;;14.00;99.90;;;;;;4894437;29;20399;-68
2021/08/27 06:49:14;;;;;;;1.40;1.30;;;14.00;99.90;;;;;;4918181;29;20403;-69
2021/08/27 06:51:40;;;;;;;1.00;1.00;;;14.10;99.90;;;;;;4898753;29;20403;-68
2021/08/27 06:54:06;;;;;;;1.00;1.00;;;14.10;99.90;;;;;;4911558;29;20414;-69
2021/08/27 06:56:32;;;;;;;0.90;0.90;;;14.10;99.90;;;;;;4909918;29;20426;-67
2021/08/27 06:58:57;;;;;;;0.63;0.63;;;14.10;99.90;;;;;;4893973;29;20402;-69
2021/08/27 07:01:23;;;;;;;0.73;0.73;;;14.10;99.90;;;;;;4893500;29;20391;-69
2021/08/27 07:03:49;;;;;;;1.80;0.90;;;14.10;99.90;;;;;;4876047;29;20408;-69
2021/08/27 07:06:15;;;;;;;0.88;0.88;;;14.00;99.90;;;;;;4910601;29;20400;-70
2021/08/27 07:08:41;;;;;;;0.70;0.70;;;14.10;99.90;;;;;;4910632;29;20959;-69
2021/08/27 07:11:06;;;;;;;0.90;0.90;;;14.20;99.90;;;;;;4895127;29;20766;-68
2021/08/27 07:13:32;;;;;;;1.55;0.82;;;14.10;99.90;;;;;;4927505;29;20403;-68
2021/08/27 07:15:58;;;;;;;1.47;0.90;;;14.10;99.90;;;;;;4925318;29;20442;-70
2021/08/27 07:18:24;;;;;;;1.90;1.00;;;14.10;99.90;;;;;;4903510;29;20416;-70
2021/08/27 07:20:50;;;;;;;0.80;0.80;;;14.10;99.90;;;;;;4919813;29;20407;-68
2021/08/27 07:23:16;;;;;;;0.80;0.80;;;14.10;99.90;;;;;;4910571;29;20403;-69
2021/08/27 07:25:42;;;;;;;0.60;0.60;;;14.10;99.90;;;;;;4903135;29;20986;-69
2021/08/27 07:28:07;;;;;;;0.80;0.80;;;14.10;99.90;;;;;;4877294;29;20548;-69
2021/08/27 07:30:33;;;;;;;0.80;0.80;;;14.10;99.90;;;;;;4914481;29;20425;-69
2021/08/27 07:32:59;;;;;;;0.80;0.80;;;14.10;99.90;;;;;;4920324;29;20446;-69
2021/08/27 07:35:25;;;;;;;0.77;0.77;;;14.20;99.90;;;;;;4925840;29;20411;-69
2021/08/27 07:37:50;;;;;;;0.73;0.73;;;14.20;99.90;;;;;;4926490;29;20465;-69
2021/08/27 07:40:16;;;;;;;0.87;0.87;;;14.30;99.90;;;;;;4926918;29;20400;-69
2021/08/27 07:42:42;;;;;;;0.70;0.70;;;14.30;99.90;;;;;;4925795;29;20412;-70
2021/08/27 07:45:08;;;;;;;0.80;0.80;;;14.20;99.90;;;;;;4918704;29;20875;-68
2021/08/27 07:47:34;;;;;;;0.60;0.60;;;14.30;99.90;;;;;;4894541;29;20411;-69
2021/08/27 07:49:59;;;;;;;0.73;0.73;;;14.30;99.90;;;;;;4920699;29;20415;-70
2021/08/27 07:52:25;;;;;;;0.63;0.63;;;14.30;99.90;;;;;;4910353;29;20403;-70
2021/08/27 07:54:51;;;;;;;0.80;0.80;;;14.30;99.90;;;;;;4910051;29;20407;-68
2021/08/27 07:57:16;;;;;;;0.70;0.70;;;14.40;99.90;;;;;;4925557;29;20566;-70
2021/08/27 07:59:42;;;;;;;0.70;0.70;;;14.40;99.90;;;;;;4908604;29;20428;-68
2021/08/27 08:02:08;;;;;;;0.60;0.60;;;14.40;99.90;;;;;;4898127;29;20407;-70
2021/08/27 08:04:34;;;;;;;0.77;0.73;;;14.50;99.90;;;;;;4911089;29;20953;-69
2021/08/27 08:06:59;;;;;;;0.80;0.80;;;14.50;99.90;;;;;;4909828;29;20466;-69
2021/08/27 08:09:25;;;;;;;0.60;0.60;;;14.50;99.90;;;;;;4894942;29;20902;-68
2021/08/27 08:11:51;;;;;;;0.50;0.50;;;14.50;99.90;;;;;;4910848;29;20413;-67
2021/08/27 08:14:17;;;;;;;0.60;0.60;;;14.50;99.90;;;;;;4910371;29;20401;-68
2021/08/27 08:16:43;;;;;;;0.60;0.60;;;14.50;99.90;;;;;;4909565;29;20400;-68
2021/08/27 08:19:12;;;;;;;0.63;0.63;;;14.50;99.90;;;;;;4908612;29;21072;-69
2021/08/27 08:21:38;;;;;;;0.70;0.70;;;14.50;99.90;;;;;;4914259;29;20474;-70
2021/08/27 08:24:04;;;;;;;0.67;0.67;;;14.50;99.90;;;;;;4898007;29;20474;-70
2021/08/27 08:26:30;;;;;;;0.57;0.57;;;14.50;99.90;;;;;;4893389;29;21155;-68
2021/08/27 08:28:56;;;;;;;0.40;0.40;;;14.50;99.90;;;;;;4891961;29;20391;-69
2021/08/27 08:31:22;;;;;;;0.60;0.60;;;14.50;99.90;;;;;;4920431;29;20406;-68
2021/08/27 08:33:49;;;;;;;0.40;0.40;;;14.50;99.90;;;;;;4911440;29;20930;-69
2021/08/27 08:36:15;;;;;;;1.83;0.60;;;14.50;99.90;;;;;;4878796;29;20408;-70
2021/08/27 08:38:40;;;;;;;0.50;0.50;;;14.40;99.90;;;;;;4894849;29;20467;-68
2021/08/27 08:41:06;;;;;;;0.47;0.47;;;14.50;99.90;;;;;;4894161;29;22062;-70
2021/08/27 08:43:32;;;;;;;0.40;0.40;;;14.50;99.90;;;;;;4878823;29;20471;-69
2021/08/27 08:45:57;;;;;;;0.55;0.50;;;14.40;99.90;;;;;;4922891;29;20479;-68
2021/08/27 08:48:24;;;;;;;0.50;0.50;;;14.40;99.90;;;;;;4925680;29;20822;-68
2021/08/27 08:50:50;;;;;;;0.45;0.45;;;14.40;99.90;;;;;;4900315;29;20499;-70
2021/08/27 08:53:17;;;;;;;0.60;0.60;;;14.50;99.90;;;;;;4879007;29;20405;-70
2021/08/27 08:55:43;;;;;;;0.57;0.57;;;14.50;99.90;;;;;;4878601;29;20828;-69
2021/08/27 08:58:08;;;;;;;0.70;0.70;;;14.60;99.90;;;;;;4878537;29;20532;-72
2021/08/27 09:00:36;;;;;;;0.53;0.53;;;14.60;99.90;;;;;;4898390;29;20411;-70
2021/08/27 09:03:02;;;;;;;0.50;0.50;;;14.70;99.90;;;;;;4907148;29;20862;-70
2021/08/27 09:05:28;;;;;;;0.50;0.50;;;14.80;99.90;;;;;;4929081;29;20403;-70
2021/08/27 09:07:54;;;;;;;0.60;0.60;;;14.80;99.90;;;;;;4912161;29;20415;-70
2021/08/27 09:10:20;;;;;;;0.60;0.60;;;14.80;99.90;;;;;;4928639;29;20419;-69
2021/08/27 09:12:47;;;;;;;0.53;0.53;;;14.90;99.90;;;;;;4929074;29;20403;-68
2021/08/27 09:15:13;;;;;;;0.43;0.43;;;15.00;99.90;;;;;;4911585;29;20457;-71
2021/08/27 09:17:43;;;;;;;0.50;0.50;;;15.10;99.90;;;;;;4929474;29;20419;-70
2021/08/27 09:20:10;;;;;;;0.45;0.45;;;15.30;99.90;;;;;;4922371;29;21054;-71
2021/08/27 09:22:48;;;;;;;0.52;0.52;;;15.40;99.90;;;;;;4912567;29;20903;-70
2021/08/27 09:25:15;;;;;;;0.53;0.53;;;15.50;99.90;;;;;;4913309;29;20383;-71
2021/08/27 09:28:01;;;;;;;0.30;0.30;;;15.60;99.90;;;;;;4929466;29;20956;-71
2021/08/27 09:30:27;;;;;;;0.43;0.43;;;15.60;99.90;;;;;;4911059;29;20774;-71
2021/08/27 09:32:54;;;;;;;0.60;0.60;;;15.60;99.90;;;;;;4921680;29;20443;-70
2021/08/27 09:35:22;;;;;;;0.32;0.32;;;15.70;99.90;;;;;;4928430;29;20439;-71
2021/08/27 09:37:54;;;;;;;0.40;0.40;;;15.70;99.90;;;;;;4929255;29;20427;-69
2021/08/27 09:40:32;;;;;;;0.60;0.60;;;15.70;99.90;;;;;;4929903;29;20403;-70
2021/08/27 09:42:58;;;;;;;0.57;0.57;;;15.70;99.90;;;;;;4927171;29;20918;-70
2021/08/27 09:45:35;;;;;;;0.63;0.63;;;15.70;99.90;;;;;;4917008;29;20790;-70
2021/08/27 09:48:04;;;;;;;1.60;1.50;;;15.60;99.90;;;;;;4908522;29;20443;-71
2021/08/27 09:50:31;;;;;;;0.68;0.68;;;15.60;99.90;;;;;;4905098;29;20857;-71
2021/08/27 09:53:10;;;;;;;0.60;0.60;;;15.50;99.90;;;;;;4895970;29;20411;-71
2021/08/27 09:55:36;;;;;;;1.02;0.63;;;15.50;99.90;;;;;;4912608;29;21204;-70
2021/08/27 09:58:12;;;;;;;0.60;0.60;;;15.50;99.90;;;;;;4911122;29;20443;-71
2021/08/27 10:00:39;;;;;;;0.50;0.50;;;15.60;99.90;;;;;;4918409;29;20471;-70
2021/08/27 10:03:21;;;;;;;0.50;0.50;;;15.70;99.90;;;;;;4907467;29;20407;-70
2021/08/27 10:05:48;;;;;;;0.70;0.70;;;15.70;99.90;;;;;;4911967;29;20415;-71
2021/08/27 10:08:15;;;;;;;0.60;0.60;;;15.90;99.90;;;;;;4911500;29;20427;-70
2021/08/27 10:10:41;;;;;;;0.60;0.60;;;15.90;99.90;;;;;;4927373;29;20905;-71
2021/08/27 10:13:07;;;;;;;0.70;0.52;;;16.00;99.90;;;;;;4927723;29;20454;-70
2021/08/27 10:15:33;;;;;;;0.40;0.40;;;16.10;99.90;;;;;;4910705;29;21111;-70
2021/08/27 10:17:59;;;;;;;0.50;0.50;;;16.40;99.90;;;;;;4911219;29;20400;-70
2021/08/27 10:20:24;;;;;;;0.50;0.50;;;16.50;99.90;;;;;;4919814;29;20755;-70
2021/08/27 10:22:50;;;;;;;0.50;0.50;;;16.60;99.90;;;;;;4911237;29;20459;-70
2021/08/27 10:25:16;;;;;;;0.43;0.43;;;16.90;99.90;;;;;;4910491;29;21081;-70
2021/08/27 10:27:46;;;;;;;0.40;0.40;;;17.10;99.90;;;;;;4893182;29;20411;-70
2021/08/27 10:30:12;;;;;;;0.50;0.40;;;17.20;99.90;;;;;;4898577;29;20415;-70
2021/08/27 10:32:41;;;;;;;0.40;0.40;;;17.50;99.90;;;;;;4903064;29;20819;-70
2021/08/27 10:35:10;;;;;;;0.40;0.40;;;17.70;99.90;;;;;;4911850;29;20414;-70
2021/08/27 10:37:43;;;;;;;0.40;0.40;;;17.80;99.90;;;;;;4926896;29;20420;-70
2021/08/27 10:40:27;;;;;;;0.50;0.50;;;17.80;99.90;;;;;;4910648;29;20945;-70
2021/08/27 10:42:52;;;;;;;0.40;0.40;;;17.80;99.90;;;;;;4910827;29;20407;-69
2021/08/27 10:45:44;;;;;;;0.40;0.40;;;17.80;99.90;;;;;;4926314;29;20905;-69
2021/08/27 10:48:26;;;;;;;0.47;0.47;;;17.50;99.90;;;;;;4927507;29;20407;-70
2021/08/27 10:50:53;;;;;;;0.40;0.40;;;17.40;99.90;;;;;;4911158;29;20422;-69
2021/08/27 10:53:26;;;;;;;0.60;0.60;;;17.40;99.90;;;;;;4910654;29;20414;-69
2021/08/27 10:55:52;;;;;;;0.32;0.32;;;17.30;99.90;;;;;;4910475;29;20826;-69
2021/08/27 10:58:21;;;;;;;0.22;0.22;;;17.10;99.90;;;;;;4926772;29;20630;-71
2021/08/27 11:00:51;;;;;;;0.38;0.30;;;17.00;99.90;;;;;;4906252;29;21111;-71
2021/08/27 11:03:17;;;;;;;0.30;0.30;;;16.90;99.90;;;;;;4922860;29;20458;-71
2021/08/27 11:05:44;;;;;;;0.30;0.30;;;16.70;99.90;;;;;;4911104;29;20419;-71
2021/08/27 11:08:11;;;;;;;0.40;0.40;;;16.60;99.90;;;;;;4910841;29;20403;-71
2021/08/27 11:10:39;;;;;;;0.32;0.32;;;16.60;99.90;;;;;;4910960;29;20466;-72
2021/08/27 11:13:10;;;;;;;0.40;0.40;;;16.50;99.90;;;;;;4913421;29;20403;-71
2021/08/27 11:15:36;;;;;;;0.40;0.40;;;16.40;99.90;;;;;;4911446;29;20915;-72
2021/08/27 11:18:17;;;;;;;0.40;0.40;;;16.30;99.90;;;;;;4905444;29;20421;-72
2021/08/27 11:20:45;;;;;;;0.40;0.40;;;16.30;99.90;;;;;;4927159;29;20407;-70
2021/08/27 11:23:11;;;;;;;0.63;0.63;;;16.30;99.90;;;;;;4894397;29;20418;-72
2021/08/27 11:25:59;;;;;;;0.38;0.38;;;16.30;99.90;;;;;;4895137;29;20442;-72
2021/08/27 11:28:25;;;;;;;0.40;0.40;;;16.40;99.90;;;;;;4906615;29;20437;-72
2021/08/27 11:31:06;;;;;;;0.30;0.30;;;16.50;99.90;;;;;;4911466;29;20469;-72
2021/08/27 11:33:43;;;;;;;0.40;0.40;;;16.60;99.90;;;;;;4925160;29;20431;-72
2021/08/27 11:36:09;;;;;;;0.50;0.50;;;16.60;99.90;;;;;;4909575;29;20838;-72
2021/08/27 11:38:35;;;;;;;0.30;0.30;;;16.70;99.90;;;;;;4910472;29;20415;-71
2021/08/27 11:41:01;;;;;;;1.17;0.93;;;16.80;99.90;;;;;;4926134;29;20420;-72
2021/08/27 11:43:37;;;;;;;0.30;0.30;;;17.00;99.90;;;;;;4922081;29;20498;-72
2021/08/27 11:46:03;;;;;;;0.35;0.35;;;17.20;99.90;;;;;;4903231;29;20420;-73
2021/08/27 11:48:34;;;;;;;0.40;0.40;;;17.40;99.90;;;;;;4895691;29;20407;-72
2021/08/27 11:51:00;;;;;;;0.30;0.30;;;17.50;99.90;;;;;;4891108;29;20488;-71
2021/08/27 11:53:28;;;;;;;0.35;0.35;;;17.60;99.90;;;;;;4895787;29;20829;-71
2021/08/27 11:55:54;;;;;;;0.20;0.20;;;17.70;99.90;;;;;;4899551;29;20419;-72
2021/08/27 11:58:20;;;;;;;0.40;0.40;;;17.70;99.90;;;;;;4897803;29;20445;-72
2021/08/27 12:00:48;;;;;;;2.70;0.40;;;17.90;99.90;;;;;;4906441;29;20470;-72
2021/08/27 12:03:15;;;;;;;0.47;0.47;;;17.90;99.90;;;;;;4884187;29;20409;-72
2021/08/27 12:05:41;;;;;;;0.47;0.47;;;18.10;99.90;;;;;;4906208;29;20407;-72
2021/08/27 12:08:10;;;;;;;0.30;0.30;;;18.20;99.90;;;;;;4904676;29;20436;-71
2021/08/27 12:10:38;;;;;;;0.30;0.30;;;18.40;99.90;;;;;;4893440;29;20495;-72
2021/08/27 12:13:05;;;;;;;0.70;0.50;;;18.50;99.90;;;;;;4904484;29;20404;-72
2021/08/27 12:15:32;;;;;;;0.30;0.30;;;18.70;99.90;;;;;;4887717;29;20480;-72
2021/08/27 12:18:02;;;;;;;0.30;0.30;;;18.80;99.90;;;;;;4903403;29;20425;-71
2021/08/27 12:20:29;;;;;;;1.10;0.40;;;18.60;99.90;;;;;;4904339;29;20431;-72
2021/08/27 12:23:01;;;;;;;1.60;0.40;;;18.70;99.90;;;;;;4894452;29;20405;-72
2021/08/27 12:25:29;;;;;;;0.50;0.50;;;18.50;99.90;;;;;;4897821;29;21168;-71
2021/08/27 12:27:55;;;;;;;0.50;0.50;;;18.50;99.90;;;;;;4894628;29;20420;-71
2021/08/27 12:30:21;;;;;;;0.32;0.32;;;18.30;99.90;;;;;;4883300;29;20427;-71
2021/08/27 12:32:47;;;;;;;0.40;0.40;;;18.30;99.90;;;;;;4900455;29;20408;-71
2021/08/27 12:35:15;;;;;;;0.30;0.30;;;18.10;99.90;;;;;;4903408;29;20411;-71
2021/08/27 12:37:41;;;;;;;0.33;0.33;;;18.10;99.90;;;;;;4897316;29;20414;-71
2021/08/27 12:40:13;;;;;;;0.40;0.32;;;18.10;99.90;;;;;;4898053;29;20817;-71
2021/08/27 12:42:40;;;;;;;0.30;0.30;;;18.20;99.90;;;;;;4913063;29;20394;-72
2021/08/27 12:45:07;;;;;;;0.30;0.30;;;18.20;99.90;;;;;;4897022;29;20470;-71
2021/08/27 12:47:42;;;;;;;0.30;0.30;;;18.30;99.90;;;;;;4908884;29;21014;-71
2021/08/27 12:50:16;;;;;;;0.30;0.30;;;18.30;99.90;;;;;;4901126;29;20477;-71